createdAt,value
2023-01-29T00:01:39.739Z,3.00
2023-01-29T00:04:09.158Z,3.00
2023-01-29T00:06:39.670Z,3.00
2023-01-29T00:09:09.153Z,3.10
2023-01-29T00:11:38.628Z,3.00
2023-01-29T00:14:08.225Z,3.00
2023-01-29T00:16:37.937Z,3.00
2023-01-29T00:19:08.952Z,3.00
2023-01-29T00:21:38.471Z,3.00
2023-01-29T00:24:08.094Z,3.00
2023-01-29T00:26:39.525Z,3.00
2023-01-29T00:29:08.954Z,3.00
2023-01-29T00:31:38.526Z,3.00
2023-01-29T00:34:09.466Z,3.00
2023-01-29T00:36:39.342Z,3.00
2023-01-29T00:39:13.594Z,3.00
2023-01-29T00:42:01.350Z,3.00
2023-01-29T00:44:48.710Z,2.90
2023-01-29T00:47:33.860Z,3.00
2023-01-29T00:50:12.026Z,3.00
2023-01-29T00:52:43.010Z,3.00
2023-01-29T00:55:13.496Z,2.90
2023-01-29T00:57:42.997Z,2.90
2023-01-29T01:00:16.281Z,2.90
2023-01-29T01:03:03.942Z,2.90
2023-01-29T01:05:33.708Z,2.90
2023-01-29T01:08:03.408Z,2.90
2023-01-29T01:10:34.673Z,2.90
2023-01-29T01:13:08.017Z,2.90
2023-01-29T01:15:40.118Z,2.90
2023-01-29T01:18:09.677Z,2.90
2023-01-29T01:20:40.829Z,2.80
2023-01-29T01:23:10.282Z,2.90
2023-01-29T01:25:39.700Z,2.80
2023-01-29T01:28:11.254Z,2.80
2023-01-29T01:30:40.719Z,2.90
2023-01-29T01:33:10.286Z,2.80
2023-01-29T01:35:41.685Z,2.90
2023-01-29T01:38:12.379Z,2.80
2023-01-29T01:40:45.090Z,2.80
2023-01-29T01:43:13.791Z,2.80
2023-01-29T01:45:44.784Z,2.80
2023-01-29T01:48:22.366Z,2.80
2023-01-29T01:51:03.722Z,2.90
2023-01-29T01:53:42.020Z,2.80
2023-01-29T01:56:15.706Z,2.80
2023-01-29T01:58:50.267Z,2.80
2023-01-29T02:01:25.504Z,2.90
2023-01-29T02:04:14.957Z,2.80
2023-01-29T02:07:04.585Z,2.80
2023-01-29T02:09:49.437Z,2.80
2023-01-29T02:12:20.304Z,2.80
2023-01-29T02:14:51.960Z,2.80
2023-01-29T02:17:22.938Z,2.80
2023-01-29T02:20:13.552Z,2.80
2023-01-29T02:22:59.337Z,2.80
2023-01-29T02:25:44.821Z,2.80
2023-01-29T02:28:35.530Z,2.80
2023-01-29T02:31:31.028Z,2.80
2023-01-29T02:34:15.402Z,2.80
2023-01-29T02:36:48.144Z,2.80
2023-01-29T02:39:38.903Z,2.80
2023-01-29T02:42:21.296Z,2.80
2023-01-29T02:44:56.966Z,2.80
2023-01-29T02:47:44.766Z,2.80
2023-01-29T02:50:47.222Z,2.80
2023-01-29T02:53:19.544Z,2.80
2023-01-29T02:55:54.552Z,2.80
2023-01-29T02:58:33.011Z,2.80
2023-01-29T03:01:05.689Z,2.80
2023-01-29T03:03:42.897Z,2.80
2023-01-29T03:06:36.993Z,2.80
2023-01-29T03:09:12.497Z,2.80
2023-01-29T03:11:47.710Z,2.80
2023-01-29T03:14:26.321Z,2.80
2023-01-29T03:16:57.026Z,2.70
2023-01-29T03:19:33.820Z,2.80
2023-01-29T03:22:09.680Z,2.80
2023-01-29T03:26:01.620Z,2.70
2023-01-29T03:28:52.541Z,2.80
2023-01-29T03:31:40.763Z,2.80
2023-01-29T03:34:26.496Z,2.80
2023-01-29T03:36:59.020Z,2.80
2023-01-29T03:39:28.758Z,2.90
2023-01-29T03:42:27.472Z,2.80
2023-01-29T03:45:08.845Z,2.70
2023-01-29T03:48:01.077Z,2.80
2023-01-29T03:51:05.559Z,2.80
2023-01-29T03:53:56.701Z,2.80
2023-01-29T03:56:54.041Z,2.80
2023-01-29T03:59:35.578Z,2.80
2023-01-29T04:02:07.797Z,2.80
2023-01-29T04:04:40.107Z,2.80
2023-01-29T04:07:13.798Z,2.80
2023-01-29T04:10:02.093Z,2.80
2023-01-29T04:12:53.005Z,2.80
2023-01-29T04:15:25.268Z,2.80
2023-01-29T04:17:57.022Z,2.80
2023-01-29T04:20:28.948Z,2.80
2023-01-29T04:22:58.437Z,2.80
2023-01-29T04:25:31.924Z,2.80
2023-01-29T04:28:10.532Z,2.70
2023-01-29T04:31:04.735Z,2.80
2023-01-29T04:33:43.127Z,2.70
2023-01-29T04:36:36.749Z,2.80
2023-01-29T04:39:21.230Z,2.80
2023-01-29T04:42:19.703Z,2.80
2023-01-29T04:45:04.470Z,2.80
2023-01-29T04:47:59.848Z,2.80
2023-01-29T04:50:41.212Z,2.90
2023-01-29T04:53:29.363Z,2.80
2023-01-29T04:56:11.021Z,2.80
2023-01-29T04:58:46.463Z,2.80
2023-01-29T05:01:18.375Z,2.80
2023-01-29T05:03:51.386Z,2.80
2023-01-29T05:06:24.823Z,2.80
2023-01-29T05:08:56.481Z,2.80
2023-01-29T05:11:27.448Z,2.70
2023-01-29T05:13:57.745Z,2.80
2023-01-29T05:16:34.661Z,2.70
2023-01-29T05:19:04.272Z,2.80
2023-01-29T05:21:34.177Z,2.80
2023-01-29T05:24:16.104Z,2.70
2023-01-29T05:27:06.726Z,2.70
2023-01-29T05:29:36.476Z,2.80
2023-01-29T05:32:06.056Z,2.70
2023-01-29T05:34:35.620Z,2.80
2023-01-29T05:37:05.223Z,2.70
2023-01-29T05:39:34.714Z,2.70
2023-01-29T05:42:04.267Z,2.70
2023-01-29T05:44:33.753Z,2.70
2023-01-29T05:47:03.253Z,2.70
2023-01-29T05:49:32.744Z,2.70
2023-01-29T05:52:02.520Z,2.70
2023-01-29T05:54:32.297Z,2.70
2023-01-29T05:57:02.374Z,2.70
2023-01-29T05:59:31.944Z,2.70
2023-01-29T06:02:01.455Z,2.70
2023-01-29T06:04:31.166Z,2.70
2023-01-29T06:07:02.226Z,2.70
2023-01-29T06:09:31.929Z,2.70
2023-01-29T06:12:01.355Z,2.80
2023-01-29T06:14:30.795Z,2.70
2023-01-29T06:17:00.267Z,2.70
2023-01-29T06:19:29.713Z,2.70
2023-01-29T06:21:59.207Z,2.70
2023-01-29T06:24:28.691Z,2.70
2023-01-29T06:26:58.091Z,2.70
2023-01-29T06:29:27.525Z,2.70
2023-01-29T06:31:57.128Z,2.60
2023-01-29T06:34:26.985Z,2.70
2023-01-29T06:36:56.495Z,2.70
2023-01-29T06:39:26.193Z,2.70
2023-01-29T06:41:55.682Z,2.60
2023-01-29T06:44:25.142Z,2.70
2023-01-29T06:46:54.906Z,2.70
2023-01-29T06:49:24.346Z,2.70
2023-01-29T06:51:53.769Z,2.70
2023-01-29T06:54:23.247Z,2.70
2023-01-29T06:56:53.438Z,2.70
2023-01-29T06:59:22.862Z,2.70
2023-01-29T07:01:52.561Z,2.60
2023-01-29T07:04:22.010Z,2.70
2023-01-29T07:06:51.447Z,2.70
2023-01-29T07:09:21.013Z,2.70
2023-01-29T07:11:50.431Z,2.60
2023-01-29T07:14:20.192Z,2.60
2023-01-29T07:16:49.984Z,2.60
2023-01-29T07:19:19.502Z,2.60
2023-01-29T07:21:48.968Z,2.60
2023-01-29T07:24:19.587Z,2.60
2023-01-29T07:26:49.127Z,2.70
2023-01-29T07:29:18.568Z,2.60
2023-01-29T07:31:48.177Z,2.60
2023-01-29T07:34:20.886Z,2.70
2023-01-29T07:36:50.731Z,2.70
2023-01-29T07:39:20.158Z,2.60
2023-01-29T07:41:49.595Z,2.70
2023-01-29T07:44:19.084Z,2.70
2023-01-29T07:46:48.514Z,2.60
2023-01-29T07:49:18.332Z,2.70
2023-01-29T07:51:47.839Z,2.80
2023-01-29T07:54:17.240Z,2.70
2023-01-29T07:56:46.672Z,2.80
2023-01-29T07:59:16.303Z,2.70
2023-01-29T08:01:45.740Z,2.80
2023-01-29T08:04:15.168Z,2.80
2023-01-29T08:06:45.201Z,2.80
2023-01-29T08:09:14.902Z,2.70
2023-01-29T08:11:45.977Z,2.70
2023-01-29T08:14:15.770Z,2.80
2023-01-29T08:16:45.239Z,2.80
2023-01-29T08:19:14.690Z,2.90
2023-01-29T08:21:45.227Z,2.80
2023-01-29T08:24:14.009Z,2.90
2023-01-29T08:26:43.356Z,2.90
2023-01-29T08:29:13.881Z,2.80
2023-01-29T08:31:43.360Z,2.90
2023-01-29T08:34:12.855Z,2.90
2023-01-29T08:36:42.521Z,2.90
2023-01-29T08:39:12.104Z,2.90
2023-01-29T08:41:41.540Z,3.00
2023-01-29T08:44:11.196Z,3.00
2023-01-29T08:46:40.888Z,3.00
2023-01-29T08:49:11.027Z,3.00
2023-01-29T08:51:40.481Z,3.10
2023-01-29T08:54:09.990Z,3.10
2023-01-29T08:56:39.807Z,3.10
2023-01-29T08:59:10.307Z,3.20
2023-01-29T09:01:39.836Z,3.20
2023-01-29T09:04:09.463Z,3.30
2023-01-29T09:06:38.945Z,3.20
2023-01-29T09:09:08.377Z,3.30
2023-01-29T09:11:38.377Z,3.40
2023-01-29T09:14:08.395Z,3.50
2023-01-29T09:16:37.828Z,3.40
2023-01-29T09:19:08.420Z,3.50
2023-01-29T09:21:37.860Z,3.50
2023-01-29T09:24:07.855Z,3.50
2023-01-29T09:26:39.252Z,3.60
2023-01-29T09:29:10.600Z,3.60
2023-01-29T09:31:40.302Z,3.70
2023-01-29T09:34:10.056Z,3.80
2023-01-29T09:36:39.603Z,3.90
2023-01-29T09:39:09.682Z,3.90
2023-01-29T09:41:42.177Z,4.10
2023-01-29T09:44:20.473Z,4.20
2023-01-29T09:46:52.718Z,4.20
2023-01-29T09:49:28.802Z,4.20
2023-01-29T09:52:01.304Z,4.30
2023-01-29T09:54:34.591Z,4.40
2023-01-29T09:57:04.178Z,4.50
2023-01-29T09:59:33.684Z,4.50
2023-01-29T10:02:33.204Z,4.60
2023-01-29T10:05:08.493Z,4.70
2023-01-29T10:07:46.719Z,4.90
2023-01-29T10:10:25.069Z,4.80
2023-01-29T10:13:03.382Z,4.80
2023-01-29T10:15:39.333Z,4.90
2023-01-29T10:18:14.564Z,4.90
2023-01-29T10:21:14.152Z,5.10
2023-01-29T10:23:52.826Z,5.10
2023-01-29T10:26:25.378Z,5.20
2023-01-29T10:28:57.953Z,5.20
2023-01-29T10:31:37.569Z,5.20
2023-01-29T10:34:19.329Z,5.20
2023-01-29T10:36:50.795Z,5.10
2023-01-29T10:39:23.342Z,5.20
2023-01-29T10:42:15.687Z,5.30
2023-01-29T10:45:03.361Z,5.60
2023-01-29T10:47:53.100Z,5.60
2023-01-29T10:50:27.156Z,5.80
2023-01-29T10:53:11.498Z,5.90
2023-01-29T10:56:21.814Z,6.00
2023-01-29T10:58:48.261Z,6.20
2023-01-29T11:01:18.017Z,6.20
2023-01-29T11:03:48.970Z,6.50
2023-01-29T11:06:25.530Z,6.70
2023-01-29T11:09:10.161Z,6.80
2023-01-29T11:12:12.975Z,7.00
2023-01-29T11:14:45.481Z,6.90
2023-01-29T11:17:24.471Z,7.00
2023-01-29T11:19:58.304Z,7.70
2023-01-29T11:22:30.820Z,7.80
2023-01-29T11:25:18.439Z,7.80
2023-01-29T11:27:56.434Z,8.20
2023-01-29T11:30:38.670Z,7.90
2023-01-29T11:33:25.453Z,8.60
2023-01-29T11:35:56.593Z,8.50
2023-01-29T11:38:30.417Z,8.80
2023-01-29T11:41:08.862Z,9.10
2023-01-29T11:43:38.980Z,9.40
2023-01-29T11:46:14.298Z,8.80
2023-01-29T11:48:48.417Z,9.30
2023-01-29T11:51:30.184Z,9.20
2023-01-29T11:54:03.062Z,9.40
2023-01-29T11:56:38.457Z,9.20
2023-01-29T11:59:09.672Z,9.00
2023-01-29T12:01:42.292Z,8.20
2023-01-29T12:04:23.761Z,8.20
2023-01-29T12:06:55.134Z,8.10
2023-01-29T12:09:28.589Z,7.50
2023-01-29T12:12:01.072Z,7.20
2023-01-29T12:14:37.774Z,7.20
2023-01-29T12:17:26.628Z,7.30
2023-01-29T12:19:59.211Z,7.70
2023-01-29T12:22:43.656Z,8.70
2023-01-29T12:25:19.209Z,8.70
2023-01-29T12:27:57.357Z,8.10
2023-01-29T12:30:38.787Z,8.00
2023-01-29T12:33:14.191Z,8.00
2023-01-29T12:36:00.424Z,8.10
2023-01-29T12:38:29.993Z,7.80
2023-01-29T12:41:08.677Z,7.50
2023-01-29T12:43:44.220Z,7.60
2023-01-29T12:46:19.941Z,7.50
2023-01-29T12:48:50.510Z,7.40
2023-01-29T12:51:29.284Z,7.30
2023-01-29T12:54:02.342Z,7.40
2023-01-29T12:56:37.053Z,7.20
2023-01-29T12:59:18.306Z,7.30
2023-01-29T13:01:54.234Z,7.00
2023-01-29T13:04:41.788Z,7.20
2023-01-29T13:07:24.181Z,7.00
2023-01-29T13:09:56.755Z,7.10
2023-01-29T13:12:27.415Z,7.30
2023-01-29T13:15:02.775Z,7.30
2023-01-29T13:17:38.189Z,7.30
2023-01-29T13:20:16.560Z,7.30
2023-01-29T13:22:50.129Z,7.40
2023-01-29T13:25:21.257Z,7.40
2023-01-29T13:27:51.793Z,7.30
2023-01-29T13:30:30.639Z,7.20
2023-01-29T13:33:10.145Z,7.20
2023-01-29T13:35:43.067Z,7.10
2023-01-29T13:38:35.618Z,7.10
2023-01-29T13:41:09.825Z,7.10
2023-01-29T13:43:42.532Z,7.00
2023-01-29T13:46:19.162Z,7.00
2023-01-29T13:48:52.345Z,7.00
2023-01-29T13:51:24.216Z,6.90
2023-01-29T13:54:05.260Z,6.60
2023-01-29T13:56:37.746Z,6.70
2023-01-29T13:59:09.504Z,6.80
2023-01-29T14:01:51.187Z,7.00
2023-01-29T14:04:27.272Z,6.90
2023-01-29T14:07:03.350Z,7.00
2023-01-29T14:09:42.321Z,7.10
2023-01-29T14:12:26.720Z,7.10
2023-01-29T14:14:59.965Z,7.10
2023-01-29T14:17:31.130Z,6.90
2023-01-29T14:20:07.377Z,6.80
2023-01-29T14:22:36.796Z,6.60
2023-01-29T14:25:08.657Z,6.60
2023-01-29T14:27:38.965Z,6.60
2023-01-29T14:30:12.329Z,6.60
2023-01-29T14:32:42.326Z,6.50
2023-01-29T14:35:21.294Z,6.50
2023-01-29T14:37:53.800Z,6.40
2023-01-29T14:40:26.326Z,6.20
2023-01-29T14:43:04.638Z,6.30
2023-01-29T14:45:45.282Z,6.30
2023-01-29T14:48:27.929Z,6.40
2023-01-29T14:51:00.377Z,6.40
2023-01-29T14:53:33.827Z,6.40
2023-01-29T14:56:24.559Z,6.30
2023-01-29T14:58:59.978Z,6.30
2023-01-29T15:01:32.536Z,6.30
2023-01-29T15:04:07.885Z,6.30
2023-01-29T15:06:49.052Z,6.30
2023-01-29T15:09:50.688Z,6.40
2023-01-29T15:12:26.002Z,6.40
2023-01-29T15:15:16.649Z,6.40
2023-01-29T15:18:07.212Z,6.30
2023-01-29T15:20:39.950Z,6.30
2023-01-29T15:23:29.907Z,6.30
2023-01-29T15:26:03.430Z,6.30
2023-01-29T15:28:35.537Z,6.20
2023-01-29T15:31:06.253Z,6.20
2023-01-29T15:33:40.579Z,6.20
2023-01-29T15:36:13.479Z,6.20
2023-01-29T15:38:43.104Z,6.20
2023-01-29T15:41:24.569Z,6.20
2023-01-29T15:44:01.782Z,6.00
2023-01-29T15:46:36.889Z,6.00
2023-01-29T15:49:12.048Z,6.10
2023-01-29T15:51:41.635Z,6.10
2023-01-29T15:54:17.468Z,6.10
2023-01-29T15:56:49.962Z,6.10
2023-01-29T15:59:22.444Z,6.00
2023-01-29T16:01:54.845Z,6.00
2023-01-29T16:04:31.369Z,5.90
2023-01-29T16:07:03.754Z,5.80
2023-01-29T16:09:33.318Z,5.90
2023-01-29T16:12:04.224Z,5.80
2023-01-29T16:14:34.799Z,5.80
2023-01-29T16:17:25.175Z,5.70
2023-01-29T16:20:01.934Z,5.70
2023-01-29T16:22:34.825Z,5.70
2023-01-29T16:25:09.831Z,5.70
2023-01-29T16:27:42.103Z,5.70
2023-01-29T16:30:17.145Z,5.60
2023-01-29T16:32:52.084Z,5.60
2023-01-29T16:35:21.576Z,5.50
2023-01-29T16:37:52.331Z,5.50
2023-01-29T16:40:33.712Z,5.50
2023-01-29T16:43:22.809Z,5.50
2023-01-29T16:46:20.407Z,5.50
2023-01-29T16:48:50.548Z,5.40
2023-01-29T16:51:35.216Z,5.40
2023-01-29T16:54:19.471Z,5.40
2023-01-29T16:56:52.254Z,5.30
2023-01-29T16:59:33.733Z,5.30
2023-01-29T17:02:04.819Z,5.30
2023-01-29T17:04:35.290Z,5.20
2023-01-29T17:07:04.791Z,5.20
2023-01-29T17:09:37.376Z,5.20
2023-01-29T17:12:10.096Z,5.20
2023-01-29T17:14:41.709Z,5.20
2023-01-29T17:17:19.634Z,5.10
2023-01-29T17:19:49.655Z,5.10
2023-01-29T17:22:19.122Z,5.20
2023-01-29T17:24:50.406Z,5.20
2023-01-29T17:27:22.749Z,5.20
2023-01-29T17:29:54.052Z,5.10
2023-01-29T17:32:25.593Z,5.10
2023-01-29T17:35:00.443Z,5.10
2023-01-29T17:37:29.069Z,5.00
2023-01-29T17:40:00.451Z,5.10
2023-01-29T17:42:30.126Z,5.10
2023-01-29T17:44:59.523Z,5.00
2023-01-29T17:47:29.516Z,5.00
2023-01-29T17:50:00.524Z,5.00
2023-01-29T17:52:30.011Z,5.00
2023-01-29T17:54:59.399Z,5.00
2023-01-29T17:57:29.447Z,5.00
2023-01-29T17:59:59.959Z,5.00
2023-01-29T18:02:30.076Z,5.00
2023-01-29T18:05:00.474Z,5.00
2023-01-29T18:07:29.971Z,4.90
2023-01-29T18:09:59.437Z,5.00
2023-01-29T18:12:29.360Z,5.00
2023-01-29T18:14:58.800Z,4.90
2023-01-29T18:17:28.968Z,4.90
2023-01-29T18:19:59.970Z,4.90
2023-01-29T18:22:29.720Z,4.90
2023-01-29T18:24:59.467Z,4.90
2023-01-29T18:27:29.016Z,4.90
2023-01-29T18:29:58.428Z,4.90
2023-01-29T18:32:27.916Z,4.80
2023-01-29T18:34:58.277Z,4.80
2023-01-29T18:37:29.633Z,4.80
2023-01-29T18:39:59.636Z,4.70
2023-01-29T18:42:32.894Z,4.70
2023-01-29T18:45:03.822Z,4.70
2023-01-29T18:47:33.336Z,4.70
2023-01-29T18:50:02.759Z,4.70
2023-01-29T18:52:32.545Z,4.60
2023-01-29T18:55:01.970Z,4.60
2023-01-29T18:58:27.174Z,4.70
2023-01-29T19:00:04.334Z,4.60
2023-01-29T19:02:34.542Z,4.60
2023-01-29T19:05:04.072Z,4.60
2023-01-29T19:07:33.616Z,4.50
2023-01-29T19:10:04.688Z,4.60
2023-01-29T19:12:34.579Z,4.60
2023-01-29T19:15:04.574Z,4.70
2023-01-29T19:17:34.819Z,4.60
2023-01-29T19:20:05.329Z,4.60
2023-01-29T19:22:35.604Z,4.60
2023-01-29T19:25:05.297Z,4.60
2023-01-29T19:27:34.736Z,4.50
2023-01-29T19:30:09.912Z,4.60
2023-01-29T19:32:39.807Z,4.60
2023-01-29T19:35:09.397Z,4.50
2023-01-29T19:37:40.025Z,4.50
2023-01-29T19:40:12.182Z,4.50
2023-01-29T19:42:42.906Z,4.60
2023-01-29T19:45:12.501Z,4.60
2023-01-29T19:47:44.792Z,4.60
2023-01-29T19:50:14.284Z,4.50
2023-01-29T19:52:51.920Z,4.50
2023-01-29T19:55:16.043Z,4.50
2023-01-29T19:57:45.721Z,4.60
2023-01-29T20:00:17.882Z,4.60
2023-01-29T20:02:47.371Z,4.50
2023-01-29T20:05:18.891Z,4.40
2023-01-29T20:07:50.445Z,4.40
2023-01-29T20:10:20.887Z,4.40
2023-01-29T20:12:50.775Z,4.40
2023-01-29T20:15:20.335Z,4.40
2023-01-29T20:17:49.761Z,4.40
2023-01-29T20:20:19.663Z,4.40
2023-01-29T20:22:49.534Z,4.50
2023-01-29T20:25:19.149Z,4.40
2023-01-29T20:27:48.559Z,4.40
2023-01-29T20:30:18.459Z,4.30
2023-01-29T20:32:48.223Z,4.30
2023-01-29T20:35:17.803Z,4.40
2023-01-29T20:37:46.757Z,4.40
2023-01-29T20:40:17.746Z,4.40
2023-01-29T20:42:46.586Z,4.40
2023-01-29T20:45:15.481Z,4.40
2023-01-29T20:47:44.694Z,4.40
2023-01-29T20:50:14.131Z,4.30
2023-01-29T20:52:43.520Z,4.30
2023-01-29T20:55:13.399Z,4.40
2023-01-29T20:57:42.139Z,4.30
2023-01-29T21:00:12.516Z,4.30
2023-01-29T21:02:41.530Z,4.40
2023-01-29T21:05:10.493Z,4.40
2023-01-29T21:07:39.080Z,4.30
2023-01-29T21:10:10.021Z,4.30
2023-01-29T21:12:38.757Z,4.30
2023-01-29T21:15:08.347Z,4.30
2023-01-29T21:17:37.196Z,4.30
2023-01-29T21:20:07.930Z,4.30
2023-01-29T21:22:36.456Z,4.30
2023-01-29T21:25:05.471Z,4.30
2023-01-29T21:27:34.035Z,4.30
2023-01-29T21:30:02.580Z,4.30
2023-01-29T21:32:31.476Z,4.30
2023-01-29T21:35:00.030Z,4.30
2023-01-29T21:37:29.955Z,4.30
2023-01-29T21:39:58.864Z,4.30
2023-01-29T21:42:46.087Z,4.30
2023-01-29T21:45:15.469Z,4.30
2023-01-29T21:47:44.126Z,4.20
2023-01-29T21:50:12.742Z,4.30
2023-01-29T21:52:41.472Z,4.30
2023-01-29T21:55:10.198Z,4.20
2023-01-29T21:57:38.816Z,4.30
2023-01-29T22:00:08.126Z,4.30
2023-01-29T22:02:36.760Z,4.20
2023-01-29T22:05:18.345Z,4.20
2023-01-29T22:07:37.027Z,4.20
2023-01-29T22:10:06.148Z,4.20
2023-01-29T22:12:34.709Z,4.20
2023-01-29T22:15:03.461Z,4.20
2023-01-29T22:17:32.884Z,4.10
2023-01-29T22:20:03.865Z,4.20
2023-01-29T22:22:33.340Z,4.20
2023-01-29T22:25:03.787Z,4.20
2023-01-29T22:27:34.822Z,4.20
2023-01-29T22:30:04.865Z,4.10
2023-01-29T22:32:34.624Z,4.10
2023-01-29T22:35:04.231Z,4.10
2023-01-29T22:37:33.666Z,4.20
2023-01-29T22:40:03.882Z,4.10
2023-01-29T22:42:33.578Z,4.10
2023-01-29T22:45:03.122Z,4.10
2023-01-29T22:47:33.943Z,4.10
2023-01-29T22:50:06.700Z,4.20
2023-01-29T22:52:39.523Z,4.10
2023-01-29T22:55:11.431Z,4.20
2023-01-29T22:57:41.332Z,4.10
2023-01-29T23:00:13.099Z,4.10
2023-01-29T23:02:42.612Z,4.10
2023-01-29T23:05:12.405Z,4.10
2023-01-29T23:07:41.831Z,4.10
2023-01-29T23:10:14.637Z,4.10
2023-01-29T23:12:44.454Z,4.10
2023-01-29T23:15:13.930Z,4.10
2023-01-29T23:17:45.342Z,4.10
2023-01-29T23:20:15.275Z,4.10
2023-01-29T23:22:45.533Z,4.10
2023-01-29T23:25:15.006Z,4.00
2023-01-29T23:27:44.440Z,4.00
2023-01-29T23:30:14.474Z,4.00
2023-01-29T23:32:44.102Z,4.00
2023-01-29T23:35:13.526Z,4.10
2023-01-29T23:37:43.007Z,4.10
2023-01-29T23:40:13.510Z,4.00
2023-01-29T23:42:42.906Z,4.00
2023-01-29T23:45:13.200Z,4.10
2023-01-29T23:47:42.597Z,4.10
2023-01-29T23:50:13.193Z,4.10
2023-01-29T23:52:42.640Z,4.00
2023-01-29T23:55:12.069Z,4.10
2023-01-29T23:57:41.510Z,4.00
